createdAt,value
2018-02-21T00:00:42.712Z,75.80
2018-02-21T00:01:42.792Z,76.30
2018-02-21T00:02:42.741Z,75.40
2018-02-21T00:03:42.782Z,78.40
2018-02-21T00:04:42.719Z,74.80
2018-02-21T00:05:42.805Z,75.80
2018-02-21T00:06:42.720Z,76.80
2018-02-21T00:07:42.817Z,72.20
2018-02-21T00:08:42.731Z,73.80
2018-02-21T00:09:42.858Z,76.00
2018-02-21T00:10:42.726Z,77.80
2018-02-21T00:11:42.838Z,78.20
2018-02-21T00:12:42.729Z,78.30
2018-02-21T00:13:42.749Z,75.80
2018-02-21T00:14:42.740Z,74.90
2018-02-21T00:15:42.764Z,75.20
2018-02-21T00:16:42.744Z,76.10
2018-02-21T00:17:42.775Z,78.30
2018-02-21T00:18:42.742Z,74.20
2018-02-21T00:19:42.786Z,73.90
2018-02-21T00:20:42.749Z,77.50
2018-02-21T00:21:42.800Z,76.90
2018-02-21T00:22:42.759Z,78.10
2018-02-21T00:23:42.815Z,79.30
2018-02-21T00:24:42.752Z,76.50
2018-02-21T00:25:42.825Z,78.60
2018-02-21T00:26:42.767Z,75.30
2018-02-21T00:27:42.840Z,73.80
2018-02-21T00:28:42.766Z,72.80
2018-02-21T00:29:42.866Z,76.80
2018-02-21T00:30:42.799Z,77.90
2018-02-21T00:31:42.874Z,76.20
2018-02-21T00:32:42.774Z,74.80
2018-02-21T00:33:42.878Z,78.50
2018-02-21T00:34:42.770Z,76.40
2018-02-21T00:35:42.785Z,79.60
2018-02-21T00:36:42.768Z,75.90
2018-02-21T00:37:42.803Z,78.80
2018-02-21T00:38:42.781Z,75.50
2018-02-21T00:39:42.815Z,78.30
2018-02-21T00:40:42.777Z,76.40
2018-02-21T00:41:42.828Z,78.00
2018-02-21T00:42:42.776Z,79.10
2018-02-21T00:43:42.842Z,77.00
2018-02-21T00:44:42.797Z,80.10
2018-02-21T00:45:42.853Z,80.70
2018-02-21T00:46:42.785Z,78.80
2018-02-21T00:47:42.863Z,77.30
2018-02-21T00:48:42.791Z,80.20
2018-02-21T00:49:42.883Z,75.50
2018-02-21T00:50:42.794Z,79.40
2018-02-21T00:51:42.910Z,84.20
2018-02-21T00:52:42.801Z,80.30
2018-02-21T00:53:42.914Z,79.40
2018-02-21T00:54:42.803Z,80.60
2018-02-21T00:55:42.818Z,83.40
2018-02-21T00:56:42.807Z,78.10
2018-02-21T00:57:42.827Z,82.40
2018-02-21T00:58:42.813Z,83.70
2018-02-21T00:59:42.841Z,77.50
2018-02-21T01:00:42.817Z,78.80
2018-02-21T01:01:42.875Z,77.80
2018-02-21T01:02:42.814Z,78.50
2018-02-21T01:03:42.878Z,74.40
2018-02-21T01:04:42.814Z,83.40
2018-02-21T01:05:42.880Z,83.90
2018-02-21T01:06:42.828Z,80.10
2018-02-21T01:07:42.896Z,82.40
2018-02-21T01:08:42.827Z,82.10
2018-02-21T01:09:42.905Z,85.50
2018-02-21T01:10:42.824Z,85.50
2018-02-21T01:11:42.924Z,80.00
2018-02-21T01:12:42.831Z,83.00
2018-02-21T01:13:42.937Z,79.70
2018-02-21T01:14:42.832Z,85.80
2018-02-21T01:15:42.945Z,81.50
2018-02-21T01:16:42.836Z,84.50
2018-02-21T01:17:42.855Z,80.00
2018-02-21T01:18:42.841Z,78.00
2018-02-21T01:19:42.872Z,83.20
2018-02-21T01:20:42.853Z,84.20
2018-02-21T01:21:43.906Z,82.10
2018-02-21T01:22:42.876Z,79.30
2018-02-21T01:23:42.897Z,76.30
2018-02-21T01:24:42.842Z,80.80
2018-02-21T01:25:42.908Z,84.20
2018-02-21T01:26:42.867Z,79.40
2018-02-21T01:27:43.945Z,83.10
2018-02-21T01:28:42.857Z,84.50
2018-02-21T01:29:42.928Z,78.50
2018-02-21T01:30:42.858Z,79.20
2018-02-21T01:31:42.949Z,80.50
2018-02-21T01:32:42.858Z,82.90
2018-02-21T01:33:42.958Z,84.70
2018-02-21T01:34:42.859Z,85.30
2018-02-21T01:35:42.969Z,81.00
2018-02-21T01:36:42.867Z,84.70
2018-02-21T01:37:42.892Z,88.20
2018-02-21T01:38:42.877Z,81.10
2018-02-21T01:39:42.891Z,82.50
2018-02-21T01:40:42.870Z,85.80
2018-02-21T01:41:42.950Z,76.70
2018-02-21T01:42:42.867Z,82.30
2018-02-21T01:43:42.931Z,80.80
2018-02-21T01:44:42.874Z,79.10
2018-02-21T01:45:43.963Z,84.80
2018-02-21T01:46:42.878Z,83.20
2018-02-21T01:47:42.950Z,81.60
2018-02-21T01:48:42.881Z,84.50
2018-02-21T01:49:42.961Z,85.80
2018-02-21T01:50:42.897Z,84.30
2018-02-21T01:51:42.965Z,88.60
2018-02-21T01:52:42.885Z,84.80
2018-02-21T01:53:42.986Z,86.90
2018-02-21T01:54:42.886Z,88.00
2018-02-21T01:55:42.992Z,89.60
2018-02-21T01:56:42.887Z,85.20
2018-02-21T01:57:43.006Z,86.80
2018-02-21T01:58:42.890Z,83.80
2018-02-21T01:59:42.920Z,86.20
2018-02-21T02:00:42.901Z,86.00
2018-02-21T02:01:42.933Z,82.80
2018-02-21T02:02:42.910Z,83.60
2018-02-21T02:03:42.947Z,83.00
2018-02-21T02:04:42.913Z,85.50
2018-02-21T02:05:42.954Z,86.30
2018-02-21T02:06:42.918Z,88.30
2018-02-21T02:07:42.966Z,85.10
2018-02-21T02:08:42.910Z,83.60
2018-02-21T02:09:42.979Z,83.10
2018-02-21T02:10:42.912Z,85.90
2018-02-21T02:11:43.000Z,86.70
2018-02-21T02:12:42.913Z,82.70
2018-02-21T02:13:43.014Z,89.40
2018-02-21T02:14:42.919Z,86.60
2018-02-21T02:15:43.024Z,86.10
2018-02-21T02:16:42.922Z,84.30
2018-02-21T02:17:42.932Z,84.70
2018-02-21T02:18:42.943Z,89.10
2018-02-21T02:19:42.956Z,86.50
2018-02-21T02:20:42.925Z,83.10
2018-02-21T02:21:42.961Z,89.20
2018-02-21T02:22:42.926Z,88.20
2018-02-21T02:23:42.969Z,86.10
2018-02-21T02:24:42.929Z,85.10
2018-02-21T02:25:42.999Z,82.40
2018-02-21T02:26:42.943Z,84.90
2018-02-21T02:27:43.005Z,89.10
2018-02-21T02:28:42.934Z,83.20
2018-02-21T02:29:43.017Z,84.30
2018-02-21T02:30:42.938Z,89.40
2018-02-21T02:31:43.031Z,88.90
2018-02-21T02:32:42.944Z,82.80
2018-02-21T02:33:43.033Z,88.40
2018-02-21T02:34:42.950Z,86.90
2018-02-21T02:35:43.047Z,85.90
2018-02-21T02:36:42.944Z,87.00
2018-02-21T02:37:42.953Z,86.70
2018-02-21T02:38:42.945Z,90.00
2018-02-21T02:39:42.984Z,91.70
2018-02-21T02:40:42.945Z,89.70
2018-02-21T02:41:42.978Z,92.20
2018-02-21T02:42:42.958Z,85.70
2018-02-21T02:43:43.117Z,92.60
2018-02-21T02:44:42.958Z,91.30
2018-02-21T02:45:43.006Z,93.90
2018-02-21T02:46:42.955Z,94.40
2018-02-21T02:47:43.021Z,89.90
2018-02-21T02:48:42.965Z,90.60
2018-02-21T02:49:43.034Z,93.60
2018-02-21T02:50:42.964Z,92.70
2018-02-21T02:51:43.045Z,93.80
2018-02-21T02:52:42.967Z,94.00
2018-02-21T02:53:43.059Z,91.70
2018-02-21T02:54:42.969Z,94.00
2018-02-21T02:55:44.002Z,88.60
2018-02-21T02:56:42.971Z,97.70
2018-02-21T02:57:42.980Z,93.70
2018-02-21T02:58:42.967Z,98.70
2018-02-21T02:59:42.993Z,94.80
2018-02-21T03:00:42.974Z,93.70
2018-02-21T03:01:43.008Z,93.00
2018-02-21T03:02:42.973Z,94.50
2018-02-21T03:03:43.020Z,90.90
2018-02-21T03:04:42.977Z,95.20
2018-02-21T03:05:43.043Z,92.70
2018-02-21T03:06:42.986Z,92.70
2018-02-21T03:07:43.046Z,94.60
2018-02-21T03:08:42.998Z,95.10
2018-02-21T03:09:43.060Z,95.90
2018-02-21T03:10:42.986Z,95.10
2018-02-21T03:11:43.074Z,89.40
2018-02-21T03:12:42.985Z,93.70
2018-02-21T03:13:43.087Z,92.20
2018-02-21T03:14:42.988Z,94.00
2018-02-21T03:15:43.100Z,94.90
2018-02-21T03:16:42.994Z,91.80
2018-02-21T03:17:43.011Z,93.80
2018-02-21T03:18:42.991Z,91.70
2018-02-21T03:19:43.024Z,93.50
2018-02-21T03:20:42.996Z,92.00
2018-02-21T03:21:43.044Z,90.90
2018-02-21T03:22:42.997Z,90.50
2018-02-21T03:23:43.053Z,93.80
2018-02-21T03:24:43.003Z,99.10
2018-02-21T03:25:43.063Z,92.40
2018-02-21T03:26:43.000Z,95.00
2018-02-21T03:27:43.077Z,95.60
2018-02-21T03:28:43.001Z,92.70
2018-02-21T03:29:43.089Z,96.60
2018-02-21T03:30:43.010Z,94.60
2018-02-21T03:31:43.102Z,93.20
2018-02-21T03:32:43.007Z,94.90
2018-02-21T03:33:43.117Z,94.10
2018-02-21T03:34:43.019Z,91.10
2018-02-21T03:35:43.025Z,90.80
2018-02-21T03:36:43.013Z,93.30
2018-02-21T03:37:43.039Z,96.60
2018-02-21T03:38:43.014Z,90.40
2018-02-21T03:39:43.053Z,92.30
2018-02-21T03:40:43.016Z,89.00
2018-02-21T03:41:43.067Z,92.90
2018-02-21T03:42:43.018Z,94.10
2018-02-21T03:43:43.081Z,90.40
2018-02-21T03:44:43.021Z,93.20
2018-02-21T03:45:43.090Z,93.10
2018-02-21T03:46:43.027Z,95.70
2018-02-21T03:47:43.106Z,86.50
2018-02-21T03:48:43.027Z,91.40
2018-02-21T03:49:43.218Z,95.40
2018-02-21T03:50:43.022Z,92.70
2018-02-21T03:51:45.079Z,92.10
2018-02-21T03:52:43.030Z,90.50
2018-02-21T03:53:45.084Z,95.00
2018-02-21T03:54:43.033Z,91.10
2018-02-21T03:55:43.060Z,93.60
2018-02-21T03:56:43.031Z,92.60
2018-02-21T03:57:43.068Z,92.40
2018-02-21T03:58:43.032Z,90.80
2018-02-21T03:59:44.104Z,92.80
2018-02-21T04:00:43.035Z,90.10
2018-02-21T04:01:43.100Z,93.70
2018-02-21T04:02:43.047Z,89.20
2018-02-21T04:03:43.103Z,91.80
2018-02-21T04:04:43.034Z,91.60
2018-02-21T04:05:43.113Z,89.60
2018-02-21T04:06:43.047Z,95.10
2018-02-21T04:07:44.151Z,89.70
2018-02-21T04:08:43.039Z,90.70
2018-02-21T04:09:43.150Z,91.00
2018-02-21T04:10:43.048Z,91.60
2018-02-21T04:11:43.158Z,90.90
2018-02-21T04:12:43.051Z,87.50
2018-02-21T04:13:43.080Z,86.30
2018-02-21T04:14:43.046Z,87.30
2018-02-21T04:15:43.079Z,85.50
2018-02-21T04:16:43.052Z,91.20
2018-02-21T04:17:43.104Z,88.00
2018-02-21T04:18:43.053Z,85.60
2018-02-21T04:19:43.104Z,86.60
2018-02-21T04:20:43.060Z,89.70
2018-02-21T04:21:43.118Z,89.40
2018-02-21T04:22:43.077Z,88.10
2018-02-21T04:23:43.059Z,87.60
2018-02-21T04:24:43.056Z,88.60
2018-02-21T04:25:43.073Z,85.20
2018-02-21T04:26:43.159Z,88.80
2018-02-21T04:27:43.062Z,87.60
2018-02-21T04:28:43.166Z,89.60
2018-02-21T04:29:43.082Z,87.20
2018-02-21T04:30:43.177Z,87.10
2018-02-21T04:31:43.065Z,86.30
2018-02-21T04:32:43.085Z,84.40
2018-02-21T04:33:43.067Z,87.20
2018-02-21T04:34:43.114Z,83.30
2018-02-21T04:35:43.074Z,87.90
2018-02-21T04:36:43.112Z,82.90
2018-02-21T04:37:43.082Z,83.50
2018-02-21T04:38:43.135Z,83.30
2018-02-21T04:39:43.070Z,87.40
2018-02-21T04:40:43.138Z,85.50
2018-02-21T04:41:43.072Z,86.80
2018-02-21T04:42:43.151Z,88.40
2018-02-21T04:43:43.084Z,84.90
2018-02-21T04:44:43.165Z,88.00
2018-02-21T04:45:43.076Z,89.80
2018-02-21T04:46:43.188Z,85.50
2018-02-21T04:47:43.082Z,85.30
2018-02-21T04:48:43.194Z,81.30
2018-02-21T04:49:43.084Z,86.50
2018-02-21T04:50:43.192Z,79.90
2018-02-21T04:51:43.093Z,84.20
2018-02-21T04:52:43.106Z,79.70
2018-02-21T04:53:43.086Z,84.10
2018-02-21T04:54:44.143Z,84.00
2018-02-21T04:55:43.091Z,83.50
2018-02-21T04:56:43.164Z,83.30
2018-02-21T04:57:43.112Z,82.00
2018-02-21T04:58:43.164Z,87.30
2018-02-21T04:59:43.089Z,85.30
2018-02-21T05:00:43.181Z,87.30
2018-02-21T05:01:43.099Z,85.20
2018-02-21T05:02:43.195Z,78.80
2018-02-21T05:03:43.094Z,84.40
2018-02-21T05:04:43.199Z,81.90
2018-02-21T05:05:43.087Z,81.50
2018-02-21T05:06:43.213Z,83.80
2018-02-21T05:07:43.101Z,86.30
2018-02-21T05:08:43.108Z,86.20
2018-02-21T05:09:43.100Z,85.10
2018-02-21T05:10:43.117Z,86.20
2018-02-21T05:11:43.099Z,86.40
2018-02-21T05:12:43.161Z,78.50
2018-02-21T05:13:43.138Z,83.00
2018-02-21T05:14:43.149Z,82.80
2018-02-21T05:15:43.098Z,84.20
2018-02-21T05:16:48.892Z,85.80
2018-02-21T05:17:43.114Z,84.40
2018-02-21T05:18:43.171Z,87.30
2018-02-21T05:19:43.101Z,86.60
2018-02-21T05:20:43.180Z,87.20
2018-02-21T05:21:43.108Z,89.20
2018-02-21T05:22:43.197Z,87.40
2018-02-21T05:23:43.112Z,85.30
2018-02-21T05:24:43.209Z,82.80
2018-02-21T05:25:43.116Z,83.40
2018-02-21T05:26:43.127Z,82.70
2018-02-21T05:27:43.260Z,84.90
2018-02-21T05:28:43.136Z,88.40
2018-02-21T05:29:43.113Z,87.80
2018-02-21T05:30:43.146Z,85.20
2018-02-21T05:31:43.110Z,84.50
2018-02-21T05:32:43.159Z,88.70
2018-02-21T05:33:43.114Z,93.80
2018-02-21T05:34:43.170Z,88.90
2018-02-21T05:35:43.134Z,85.50
2018-02-21T05:36:43.187Z,90.10
2018-02-21T05:37:43.121Z,88.00
2018-02-21T05:38:43.200Z,90.00
2018-02-21T05:39:43.119Z,91.10
2018-02-21T05:40:43.220Z,86.30
2018-02-21T05:41:43.117Z,84.80
2018-02-21T05:42:43.224Z,91.00
2018-02-21T05:43:43.121Z,86.60
2018-02-21T05:44:43.232Z,90.70
2018-02-21T05:45:43.124Z,90.30
2018-02-21T05:46:43.248Z,96.50
2018-02-21T05:47:43.125Z,93.60
2018-02-21T05:48:43.166Z,90.50
2018-02-21T05:49:43.125Z,90.80
2018-02-21T05:50:43.173Z,90.60
2018-02-21T05:51:43.138Z,92.90
2018-02-21T05:52:43.185Z,90.30
2018-02-21T05:53:43.133Z,86.80
2018-02-21T05:54:43.202Z,84.90
2018-02-21T05:55:43.128Z,85.70
2018-02-21T05:56:43.261Z,87.50
2018-02-21T05:57:43.145Z,86.40
2018-02-21T05:58:43.233Z,84.60
2018-02-21T05:59:43.131Z,84.00
2018-02-21T06:00:44.157Z,87.40
2018-02-21T06:01:43.148Z,84.00
2018-02-21T06:02:43.151Z,84.20
2018-02-21T06:03:43.144Z,83.10
2018-02-21T06:04:43.166Z,85.90
2018-02-21T06:05:43.144Z,84.10
2018-02-21T06:06:44.206Z,83.60
2018-02-21T06:07:43.137Z,80.80
2018-02-21T06:08:43.189Z,84.30
2018-02-21T06:09:43.155Z,84.80
2018-02-21T06:10:43.203Z,85.10
2018-02-21T06:11:43.156Z,85.30
2018-02-21T06:12:43.212Z,83.40
2018-02-21T06:13:43.145Z,85.00
2018-02-21T06:14:43.224Z,85.50
2018-02-21T06:15:43.150Z,87.20
2018-02-21T06:16:43.243Z,86.40
2018-02-21T06:17:43.146Z,83.20
2018-02-21T06:18:43.253Z,85.70
2018-02-21T06:19:43.149Z,90.00
2018-02-21T06:20:43.268Z,85.20
2018-02-21T06:21:43.155Z,85.40
2018-02-21T06:22:43.173Z,84.90
2018-02-21T06:23:43.154Z,87.10
2018-02-21T06:24:43.184Z,91.00
2018-02-21T06:25:43.150Z,87.10
2018-02-21T06:26:43.153Z,88.90
2018-02-21T06:27:43.149Z,84.30
2018-02-21T06:28:43.237Z,82.00
2018-02-21T06:29:43.151Z,84.50
2018-02-21T06:30:43.225Z,86.10
2018-02-21T06:31:43.153Z,84.50
2018-02-21T06:32:43.236Z,87.60
2018-02-21T06:33:43.160Z,86.60
2018-02-21T06:34:43.250Z,86.60
2018-02-21T06:35:43.157Z,87.50
2018-02-21T06:36:44.190Z,89.00
2018-02-21T06:37:43.157Z,87.30
2018-02-21T06:38:43.180Z,86.60
2018-02-21T06:39:43.164Z,85.60
2018-02-21T06:40:43.191Z,87.40
2018-02-21T06:41:43.169Z,83.10
2018-02-21T06:42:43.292Z,91.00
2018-02-21T06:43:43.161Z,82.30
2018-02-21T06:44:43.336Z,83.70
2018-02-21T06:45:43.156Z,84.70
2018-02-21T06:46:43.231Z,83.50
2018-02-21T06:47:43.164Z,81.30
2018-02-21T06:48:43.308Z,76.80
2018-02-21T06:49:43.165Z,85.20
2018-02-21T06:50:43.250Z,86.20
2018-02-21T06:51:43.178Z,82.10
2018-02-21T06:52:43.271Z,86.40
2018-02-21T06:53:43.168Z,87.50
2018-02-21T06:54:44.201Z,84.80
2018-02-21T06:55:43.188Z,80.00
2018-02-21T06:56:43.191Z,78.60
2018-02-21T06:57:43.170Z,77.90
2018-02-21T06:58:43.197Z,84.40
2018-02-21T06:59:43.204Z,80.00
2018-02-21T07:00:43.210Z,87.20
2018-02-21T07:01:43.168Z,77.80
2018-02-21T07:02:43.223Z,82.30
2018-02-21T07:03:43.181Z,77.60
2018-02-21T07:04:43.242Z,78.90
2018-02-21T07:05:43.173Z,77.90
2018-02-21T07:06:43.259Z,81.50
2018-02-21T07:07:43.177Z,84.40
2018-02-21T07:08:43.266Z,78.50
2018-02-21T07:09:43.173Z,78.80
2018-02-21T07:10:44.202Z,81.00
2018-02-21T07:11:43.178Z,79.50
2018-02-21T07:12:43.316Z,77.50
2018-02-21T07:13:43.174Z,81.20
2018-02-21T07:14:43.208Z,79.20
2018-02-21T07:15:43.175Z,81.70
2018-02-21T07:16:43.216Z,83.10
2018-02-21T07:17:43.174Z,80.90
2018-02-21T07:18:43.229Z,81.50
2018-02-21T07:19:43.179Z,83.40
2018-02-21T07:20:43.237Z,77.40
2018-02-21T07:21:43.176Z,80.30
2018-02-21T07:22:43.253Z,79.40
2018-02-21T07:23:43.186Z,78.90
2018-02-21T07:24:43.262Z,81.00
2018-02-21T07:25:43.182Z,78.40
2018-02-21T07:26:43.185Z,83.00
2018-02-21T07:27:43.188Z,73.00
2018-02-21T07:28:43.277Z,80.60
2018-02-21T07:29:43.195Z,76.10
2018-02-21T07:30:43.300Z,75.80
2018-02-21T07:31:43.188Z,77.50
2018-02-21T07:32:43.231Z,77.20
2018-02-21T07:33:43.186Z,77.40
2018-02-21T07:34:43.214Z,83.00
2018-02-21T07:35:43.202Z,83.30
2018-02-21T07:36:43.236Z,80.20
2018-02-21T07:37:43.186Z,78.70
2018-02-21T07:38:43.253Z,80.80
2018-02-21T07:39:43.212Z,79.40
2018-02-21T07:40:43.261Z,76.10
2018-02-21T07:41:43.232Z,79.50
2018-02-21T07:42:44.238Z,79.40
2018-02-21T07:43:43.191Z,78.20
2018-02-21T07:44:43.224Z,79.40
2018-02-21T07:45:43.190Z,81.60
2018-02-21T07:46:43.264Z,81.50
2018-02-21T07:47:43.198Z,80.40
2018-02-21T07:48:44.274Z,79.20
2018-02-21T07:49:43.204Z,74.70
2018-02-21T07:50:44.284Z,77.20
2018-02-21T07:51:43.231Z,80.10
2018-02-21T07:52:43.277Z,80.10
2018-02-21T07:53:43.199Z,76.00
2018-02-21T07:54:43.299Z,80.80
2018-02-21T07:55:43.216Z,75.50
2018-02-21T07:56:43.205Z,73.10
2018-02-21T07:57:43.199Z,79.50
2018-02-21T07:58:43.213Z,76.60
2018-02-21T07:59:43.202Z,81.80
2018-02-21T08:00:43.223Z,75.50
2018-02-21T08:01:43.298Z,78.40
2018-02-21T08:02:43.366Z,81.60
2018-02-21T08:03:43.229Z,77.80
2018-02-21T08:04:43.243Z,77.40
2018-02-21T08:05:43.275Z,79.10
2018-02-21T08:06:43.209Z,73.50
2018-02-21T08:07:43.231Z,76.00
2018-02-21T08:08:43.243Z,72.90
2018-02-21T08:09:44.353Z,75.90
2018-02-21T08:10:43.199Z,71.70
2018-02-21T08:11:43.251Z,74.40
2018-02-21T08:12:43.215Z,78.40
2018-02-21T08:13:43.226Z,81.30
2018-02-21T08:14:43.232Z,76.40
2018-02-21T08:15:43.234Z,75.10
2018-02-21T08:16:43.225Z,73.10
2018-02-21T08:17:43.262Z,71.90
2018-02-21T08:18:43.233Z,73.10
2018-02-21T08:19:43.255Z,73.30
2018-02-21T08:20:43.249Z,77.50
2018-02-21T08:21:43.222Z,72.10
2018-02-21T08:22:43.204Z,68.30
2018-02-21T08:23:43.205Z,75.80
2018-02-21T08:24:43.239Z,76.30
2018-02-21T08:25:43.254Z,73.10
2018-02-21T08:26:43.211Z,76.90
2018-02-21T08:27:43.272Z,69.90
2018-02-21T08:28:43.252Z,76.10
2018-02-21T08:29:43.238Z,75.70
2018-02-21T08:30:43.212Z,79.20
2018-02-21T08:31:43.239Z,72.40
2018-02-21T08:32:43.208Z,71.80
2018-02-21T08:33:43.253Z,71.10
2018-02-21T08:34:43.250Z,71.70
2018-02-21T08:35:43.263Z,72.70
2018-02-21T08:36:43.216Z,71.10
2018-02-21T08:37:43.228Z,72.90
2018-02-21T08:38:43.231Z,72.00
2018-02-21T08:39:43.254Z,79.40
2018-02-21T08:40:43.208Z,73.00
2018-02-21T08:41:43.215Z,74.50
2018-02-21T08:42:43.215Z,70.90
2018-02-21T08:43:43.208Z,75.30
2018-02-21T08:44:43.217Z,75.00
2018-02-21T08:45:43.211Z,67.40
2018-02-21T08:46:43.302Z,72.70
2018-02-21T08:47:43.218Z,71.40
2018-02-21T08:48:43.315Z,69.40
2018-02-21T08:49:43.361Z,73.30
2018-02-21T08:50:44.273Z,70.30
2018-02-21T08:51:43.219Z,73.20
2018-02-21T08:52:43.248Z,76.20
2018-02-21T08:53:43.233Z,71.90
2018-02-21T08:54:43.258Z,68.80
2018-02-21T08:55:43.213Z,72.90
2018-02-21T08:56:43.271Z,70.40
2018-02-21T08:57:43.222Z,73.10
2018-02-21T08:58:43.279Z,66.50
2018-02-21T08:59:43.227Z,68.50
2018-02-21T09:00:43.295Z,66.90
2018-02-21T09:01:43.223Z,66.30
2018-02-21T09:02:43.348Z,62.60
2018-02-21T09:03:43.222Z,67.40
2018-02-21T09:04:43.348Z,68.50
2018-02-21T09:05:43.228Z,62.70
2018-02-21T09:06:43.336Z,62.10
2018-02-21T09:07:43.231Z,65.90
2018-02-21T09:08:43.249Z,63.80
2018-02-21T09:09:43.226Z,62.30
2018-02-21T09:10:43.232Z,67.50
2018-02-21T09:11:43.252Z,62.70
2018-02-21T09:12:43.376Z,60.50
2018-02-21T09:13:43.232Z,60.30
2018-02-21T09:14:43.293Z,63.30
2018-02-21T09:15:43.245Z,62.70
2018-02-21T09:16:43.349Z,60.80
2018-02-21T09:17:43.236Z,63.80
2018-02-21T09:18:43.323Z,60.30
2018-02-21T09:19:43.236Z,58.90
2018-02-21T09:20:43.351Z,62.20
2018-02-21T09:21:43.248Z,62.50
2018-02-21T09:22:44.264Z,66.60
2018-02-21T09:23:43.240Z,60.30
2018-02-21T09:24:43.262Z,59.50
2018-02-21T09:25:43.246Z,59.70
2018-02-21T09:26:43.253Z,59.80
2018-02-21T09:27:44.309Z,61.20
2018-02-21T09:28:43.248Z,64.20
2018-02-21T09:29:43.301Z,61.70
2018-02-21T09:30:43.247Z,59.00
2018-02-21T09:31:43.312Z,57.90
2018-02-21T09:32:43.270Z,55.50
2018-02-21T09:33:43.337Z,55.90
2018-02-21T09:34:43.251Z,52.40
2018-02-21T09:35:43.335Z,52.00
2018-02-21T09:36:43.259Z,52.60
2018-02-21T09:37:43.350Z,53.50
2018-02-21T09:38:43.258Z,54.80
2018-02-21T09:39:43.364Z,51.20
2018-02-21T09:40:43.266Z,50.50
2018-02-21T09:41:43.380Z,51.20
2018-02-21T09:42:43.259Z,48.20
2018-02-21T09:43:43.289Z,46.70
2018-02-21T09:44:43.274Z,48.90
2018-02-21T09:45:43.303Z,50.70
2018-02-21T09:46:43.274Z,49.30
2018-02-21T09:47:43.325Z,53.10
2018-02-21T09:48:43.274Z,53.80
2018-02-21T09:49:43.280Z,50.00
2018-02-21T09:50:43.332Z,49.40
2018-02-21T09:51:43.273Z,49.70
2018-02-21T09:52:43.344Z,47.60
2018-02-21T09:53:43.280Z,47.20
2018-02-21T09:54:43.362Z,51.40
2018-02-21T09:55:43.279Z,50.50
2018-02-21T09:56:45.317Z,49.70
2018-02-21T09:57:43.290Z,50.50
2018-02-21T09:58:43.401Z,49.10
2018-02-21T09:59:43.285Z,49.30
2018-02-21T10:00:43.354Z,47.30
2018-02-21T10:01:43.287Z,53.60
2018-02-21T10:02:43.373Z,51.50
2018-02-21T10:03:43.356Z,50.10
2018-02-21T10:04:43.291Z,49.70
2018-02-21T10:05:44.353Z,46.10
2018-02-21T10:06:43.305Z,49.30
2018-02-21T10:07:44.325Z,46.70
2018-02-21T10:08:43.301Z,46.60
2018-02-21T10:09:43.294Z,47.40
2018-02-21T10:10:43.304Z,45.90
2018-02-21T10:11:43.297Z,44.70
2018-02-21T10:12:43.401Z,46.60
2018-02-21T10:13:43.328Z,45.50
2018-02-21T10:14:43.306Z,47.40
2018-02-21T10:15:43.308Z,45.60
2018-02-21T10:16:43.329Z,47.90
2018-02-21T10:17:43.350Z,46.50
2018-02-21T10:18:43.355Z,48.10
2018-02-21T10:19:43.312Z,43.60
2018-02-21T10:20:43.355Z,43.70
2018-02-21T10:21:43.315Z,42.90
2018-02-21T10:22:43.376Z,45.10
2018-02-21T10:23:43.333Z,44.10
2018-02-21T10:24:45.435Z,47.80
2018-02-21T10:25:43.326Z,48.00
2018-02-21T10:26:43.402Z,45.70
2018-02-21T10:27:43.326Z,45.80
2018-02-21T10:28:43.408Z,45.80
2018-02-21T10:29:43.337Z,51.90
2018-02-21T10:30:43.423Z,43.50
2018-02-21T10:31:43.335Z,42.80
2018-02-21T10:32:43.335Z,43.70
2018-02-21T10:33:43.339Z,42.00
2018-02-21T10:34:43.345Z,43.90
2018-02-21T10:35:43.340Z,49.80
2018-02-21T10:36:43.345Z,50.00
2018-02-21T10:37:43.353Z,43.40
2018-02-21T10:38:43.346Z,44.50
2018-02-21T10:39:43.346Z,43.40
2018-02-21T10:40:43.350Z,45.40
2018-02-21T10:41:43.369Z,44.20
2018-02-21T10:42:43.435Z,42.50
2018-02-21T10:43:43.367Z,44.00
2018-02-21T10:44:43.362Z,41.60
2018-02-21T10:45:43.459Z,43.00
2018-02-21T10:46:43.362Z,42.10
2018-02-21T10:47:43.418Z,42.80
2018-02-21T10:48:43.369Z,42.70
2018-02-21T10:49:44.459Z,43.70
2018-02-21T10:50:43.378Z,47.60
2018-02-21T10:51:43.447Z,42.50
2018-02-21T10:52:43.375Z,40.50
2018-02-21T10:53:43.407Z,40.90
2018-02-21T10:54:43.378Z,40.70
2018-02-21T10:55:43.375Z,44.00
2018-02-21T10:56:43.383Z,41.20
2018-02-21T10:57:43.385Z,36.80
2018-02-21T10:58:43.382Z,42.90
2018-02-21T10:59:43.388Z,41.00
2018-02-21T11:00:43.387Z,39.80
2018-02-21T11:01:43.396Z,41.80
2018-02-21T11:02:43.488Z,43.20
2018-02-21T11:03:43.405Z,40.00
2018-02-21T11:04:43.484Z,39.50
2018-02-21T11:05:43.410Z,45.80
2018-02-21T11:06:43.497Z,41.00
2018-02-21T11:07:43.404Z,41.60
2018-02-21T11:08:43.493Z,44.70
2018-02-21T11:09:43.410Z,41.30
2018-02-21T11:10:44.524Z,40.10
2018-02-21T11:11:43.413Z,40.50
2018-02-21T11:12:43.518Z,40.40
2018-02-21T11:13:43.430Z,41.80
2018-02-21T11:14:43.531Z,39.00
2018-02-21T11:15:43.425Z,40.30
2018-02-21T11:16:43.554Z,39.40
2018-02-21T11:17:43.428Z,39.40
2018-02-21T11:18:43.454Z,42.30
2018-02-21T11:19:43.449Z,39.90
2018-02-21T11:20:43.460Z,39.00
2018-02-21T11:21:43.439Z,40.70
2018-02-21T11:22:43.474Z,36.30
2018-02-21T11:23:43.494Z,35.40
2018-02-21T11:24:43.607Z,38.50
2018-02-21T11:25:43.451Z,37.50
2018-02-21T11:26:43.447Z,35.00
2018-02-21T11:27:43.517Z,35.90
2018-02-21T11:28:43.461Z,37.00
2018-02-21T11:29:43.538Z,37.00
2018-02-21T11:30:43.463Z,32.60
2018-02-21T11:31:44.572Z,34.90
2018-02-21T11:32:43.473Z,34.00
2018-02-21T11:33:44.586Z,38.20
2018-02-21T11:34:43.474Z,36.10
2018-02-21T11:35:43.570Z,37.60
2018-02-21T11:36:43.476Z,35.50
2018-02-21T11:37:43.581Z,40.80
2018-02-21T11:38:43.490Z,34.20
2018-02-21T11:39:44.522Z,35.20
2018-02-21T11:40:43.485Z,35.40
2018-02-21T11:41:43.509Z,36.40
2018-02-21T11:42:43.522Z,35.80
2018-02-21T11:43:43.520Z,36.60
2018-02-21T11:44:43.498Z,35.40
2018-02-21T11:45:43.535Z,36.30
2018-02-21T11:46:43.513Z,35.40
2018-02-21T11:47:43.507Z,37.10
2018-02-21T11:48:43.517Z,32.20
2018-02-21T11:49:43.512Z,39.70
2018-02-21T11:50:43.517Z,35.80
2018-02-21T11:51:43.521Z,37.50
2018-02-21T11:52:43.578Z,33.90
2018-02-21T11:53:43.524Z,33.10
2018-02-21T11:54:43.644Z,36.50
2018-02-21T11:55:43.526Z,36.50
2018-02-21T11:56:43.629Z,35.30
2018-02-21T11:57:43.557Z,38.90
2018-02-21T11:58:43.618Z,39.90
2018-02-21T11:59:43.551Z,38.70
2018-02-21T12:00:43.631Z,36.60
2018-02-21T12:01:43.545Z,36.80
2018-02-21T12:02:43.556Z,37.80
2018-02-21T12:03:43.656Z,42.30
2018-02-21T12:04:43.650Z,35.60
2018-02-21T12:05:43.665Z,37.80
2018-02-21T12:06:43.568Z,32.90
2018-02-21T12:07:43.683Z,35.90
2018-02-21T12:08:43.563Z,33.70
2018-02-21T12:09:43.660Z,36.40
2018-02-21T12:10:43.583Z,33.40
2018-02-21T12:11:43.602Z,36.70
2018-02-21T12:12:43.584Z,32.10
2018-02-21T12:13:43.694Z,32.60
2018-02-21T12:14:43.592Z,33.00
2018-02-21T12:15:43.710Z,37.00
2018-02-21T12:16:43.600Z,34.90
2018-02-21T12:17:43.736Z,37.90
2018-02-21T12:18:43.618Z,35.50
2018-02-21T12:19:43.953Z,34.40
2018-02-21T12:20:43.609Z,36.30
2018-02-21T12:21:43.658Z,35.40
2018-02-21T12:22:43.613Z,33.40
2018-02-21T12:23:43.662Z,36.10
2018-02-21T12:24:43.616Z,33.60
2018-02-21T12:25:43.677Z,36.90
2018-02-21T12:26:43.680Z,36.10
2018-02-21T12:27:43.627Z,34.00
2018-02-21T12:28:43.698Z,36.50
2018-02-21T12:29:43.641Z,36.20
2018-02-21T12:30:44.735Z,32.80
2018-02-21T12:31:43.652Z,35.10
2018-02-21T12:32:43.726Z,34.80
2018-02-21T12:33:43.663Z,33.20
2018-02-21T12:34:43.738Z,34.00
2018-02-21T12:35:43.661Z,34.50
2018-02-21T12:36:43.660Z,35.20
2018-02-21T12:37:43.758Z,35.90
2018-02-21T12:38:43.709Z,33.20
2018-02-21T12:39:43.672Z,34.90
2018-02-21T12:40:43.673Z,33.40
2018-02-21T12:41:43.694Z,32.70
2018-02-21T12:42:43.790Z,36.00
2018-02-21T12:43:43.685Z,33.10
2018-02-21T12:44:44.721Z,35.40
2018-02-21T12:45:43.699Z,33.20
2018-02-21T12:46:44.743Z,33.60
2018-02-21T12:47:43.755Z,33.60
2018-02-21T12:48:43.884Z,34.50
2018-02-21T12:49:43.706Z,30.90
2018-02-21T12:50:43.740Z,36.50
2018-02-21T12:51:43.714Z,35.90
2018-02-21T12:52:43.752Z,34.80